sensor_id;sensor_type;location;lat;lon;timestamp;P1;durP1;ratioP1;P2;durP2;ratioP2
20729;SDS011;10526;50.850;12.928;2023-09-18T00:00:26;9.85;;;4.40;;
20729;SDS011;10526;50.850;12.928;2023-09-18T00:04:54;9.75;;;4.65;;
20729;SDS011;10526;50.850;12.928;2023-09-18T00:09:16;9.30;;;4.10;;
20729;SDS011;10526;50.850;12.928;2023-09-18T00:13:38;11.25;;;4.30;;
20729;SDS011;10526;50.850;12.928;2023-09-18T00:18:01;10.15;;;4.22;;
20729;SDS011;10526;50.850;12.928;2023-09-18T00:22:23;11.40;;;4.47;;
20729;SDS011;10526;50.850;12.928;2023-09-18T00:26:47;10.93;;;4.35;;
20729;SDS011;10526;50.850;12.928;2023-09-18T00:31:09;9.25;;;3.95;;
20729;SDS011;10526;50.850;12.928;2023-09-18T00:35:31;7.95;;;4.32;;
20729;SDS011;10526;50.850;12.928;2023-09-18T00:39:53;10.07;;;4.22;;
20729;SDS011;10526;50.850;12.928;2023-09-18T00:44:16;9.32;;;4.63;;
20729;SDS011;10526;50.850;12.928;2023-09-18T00:48:39;13.07;;;4.50;;
20729;SDS011;10526;50.850;12.928;2023-09-18T00:53:02;10.82;;;4.32;;
20729;SDS011;10526;50.850;12.928;2023-09-18T00:57:24;7.68;;;3.90;;
20729;SDS011;10526;50.850;12.928;2023-09-18T01:01:47;10.45;;;3.83;;
20729;SDS011;10526;50.850;12.928;2023-09-18T01:06:11;7.78;;;3.75;;
20729;SDS011;10526;50.850;12.928;2023-09-18T01:10:36;7.43;;;3.65;;
20729;SDS011;10526;50.850;12.928;2023-09-18T01:15:39;7.55;;;3.83;;
20729;SDS011;10526;50.850;12.928;2023-09-18T01:20:16;6.70;;;3.70;;
20729;SDS011;10526;50.850;12.928;2023-09-18T01:24:39;8.40;;;4.25;;
20729;SDS011;10526;50.850;12.928;2023-09-18T01:29:03;9.55;;;4.32;;
20729;SDS011;10526;50.850;12.928;2023-09-18T01:33:25;8.60;;;4.22;;
20729;SDS011;10526;50.850;12.928;2023-09-18T01:37:49;10.00;;;4.32;;
20729;SDS011;10526;50.850;12.928;2023-09-18T01:42:14;10.40;;;4.50;;
20729;SDS011;10526;50.850;12.928;2023-09-18T01:46:36;10.65;;;4.07;;
20729;SDS011;10526;50.850;12.928;2023-09-18T01:51:00;11.43;;;4.47;;
20729;SDS011;10526;50.850;12.928;2023-09-18T01:55:22;8.75;;;3.90;;
20729;SDS011;10526;50.850;12.928;2023-09-18T01:59:46;11.65;;;4.07;;
20729;SDS011;10526;50.850;12.928;2023-09-18T02:04:08;9.20;;;4.63;;
20729;SDS011;10526;50.850;12.928;2023-09-18T02:08:51;9.52;;;4.22;;
20729;SDS011;10526;50.850;12.928;2023-09-18T02:13:15;10.73;;;5.22;;
20729;SDS011;10526;50.850;12.928;2023-09-18T02:17:39;8.23;;;4.38;;
20729;SDS011;10526;50.850;12.928;2023-09-18T02:22:01;10.60;;;4.32;;
20729;SDS011;10526;50.850;12.928;2023-09-18T02:26:24;10.98;;;4.60;;
20729;SDS011;10526;50.850;12.928;2023-09-18T02:30:46;9.35;;;4.22;;
20729;SDS011;10526;50.850;12.928;2023-09-18T02:35:08;9.00;;;4.28;;
20729;SDS011;10526;50.850;12.928;2023-09-18T02:39:31;8.25;;;4.10;;
20729;SDS011;10526;50.850;12.928;2023-09-18T02:43:54;9.20;;;4.18;;
20729;SDS011;10526;50.850;12.928;2023-09-18T02:48:16;8.45;;;4.32;;
20729;SDS011;10526;50.850;12.928;2023-09-18T02:52:39;7.65;;;3.90;;
20729;SDS011;10526;50.850;12.928;2023-09-18T02:57:02;8.65;;;3.90;;
20729;SDS011;10526;50.850;12.928;2023-09-18T03:01:24;9.20;;;4.00;;
20729;SDS011;10526;50.850;12.928;2023-09-18T03:05:47;10.05;;;4.25;;
20729;SDS011;10526;50.850;12.928;2023-09-18T03:10:09;7.25;;;3.88;;
20729;SDS011;10526;50.850;12.928;2023-09-18T03:14:35;8.00;;;4.20;;
20729;SDS011;10526;50.850;12.928;2023-09-18T03:18:57;9.75;;;4.70;;
20729;SDS011;10526;50.850;12.928;2023-09-18T03:23:19;7.68;;;4.10;;
20729;SDS011;10526;50.850;12.928;2023-09-18T03:27:42;11.13;;;4.55;;
20729;SDS011;10526;50.850;12.928;2023-09-18T03:32:04;10.10;;;4.47;;
20729;SDS011;10526;50.850;12.928;2023-09-18T03:36:26;8.68;;;4.25;;
20729;SDS011;10526;50.850;12.928;2023-09-18T03:40:49;10.13;;;4.72;;
20729;SDS011;10526;50.850;12.928;2023-09-18T03:45:13;7.68;;;4.07;;
20729;SDS011;10526;50.850;12.928;2023-09-18T03:49:36;7.35;;;3.90;;
20729;SDS011;10526;50.850;12.928;2023-09-18T03:53:58;9.68;;;4.75;;
20729;SDS011;10526;50.850;12.928;2023-09-18T03:58:20;12.18;;;4.78;;
20729;SDS011;10526;50.850;12.928;2023-09-18T04:02:43;9.55;;;4.68;;
20729;SDS011;10526;50.850;12.928;2023-09-18T04:07:05;8.38;;;4.55;;
20729;SDS011;10526;50.850;12.928;2023-09-18T04:11:29;10.13;;;5.20;;
20729;SDS011;10526;50.850;12.928;2023-09-18T04:15:53;10.57;;;4.82;;
20729;SDS011;10526;50.850;12.928;2023-09-18T04:20:19;9.18;;;4.72;;
20729;SDS011;10526;50.850;12.928;2023-09-18T04:24:41;12.45;;;4.90;;
20729;SDS011;10526;50.850;12.928;2023-09-18T04:29:03;11.05;;;4.90;;
20729;SDS011;10526;50.850;12.928;2023-09-18T04:33:26;11.23;;;5.05;;
20729;SDS011;10526;50.850;12.928;2023-09-18T04:37:55;10.27;;;5.03;;
20729;SDS011;10526;50.850;12.928;2023-09-18T04:42:17;8.98;;;4.40;;
20729;SDS011;10526;50.850;12.928;2023-09-18T04:46:40;8.70;;;4.32;;
20729;SDS011;10526;50.850;12.928;2023-09-18T04:51:05;11.50;;;5.05;;
20729;SDS011;10526;50.850;12.928;2023-09-18T04:55:28;11.43;;;4.65;;
20729;SDS011;10526;50.850;12.928;2023-09-18T04:59:50;12.30;;;5.55;;
20729;SDS011;10526;50.850;12.928;2023-09-18T05:04:32;10.00;;;5.00;;
20729;SDS011;10526;50.850;12.928;2023-09-18T05:08:55;10.57;;;4.57;;
20729;SDS011;10526;50.850;12.928;2023-09-18T05:13:18;10.50;;;5.35;;
20729;SDS011;10526;50.850;12.928;2023-09-18T05:17:46;9.85;;;4.78;;
20729;SDS011;10526;50.850;12.928;2023-09-18T05:22:10;9.00;;;4.40;;
20729;SDS011;10526;50.850;12.928;2023-09-18T05:26:32;10.75;;;4.30;;
20729;SDS011;10526;50.850;12.928;2023-09-18T05:30:55;9.02;;;4.20;;
20729;SDS011;10526;50.850;12.928;2023-09-18T05:35:17;10.77;;;4.35;;
20729;SDS011;10526;50.850;12.928;2023-09-18T05:39:39;9.23;;;4.00;;
20729;SDS011;10526;50.850;12.928;2023-09-18T05:44:01;11.35;;;4.40;;
20729;SDS011;10526;50.850;12.928;2023-09-18T05:48:26;7.70;;;3.90;;
20729;SDS011;10526;50.850;12.928;2023-09-18T05:52:48;11.95;;;4.53;;
20729;SDS011;10526;50.850;12.928;2023-09-18T05:57:11;12.27;;;4.55;;
20729;SDS011;10526;50.850;12.928;2023-09-18T06:01:33;10.70;;;4.35;;
20729;SDS011;10526;50.850;12.928;2023-09-18T06:05:55;9.30;;;4.03;;
20729;SDS011;10526;50.850;12.928;2023-09-18T06:10:18;7.35;;;3.80;;
20729;SDS011;10526;50.850;12.928;2023-09-18T06:14:39;8.00;;;3.67;;
20729;SDS011;10526;50.850;12.928;2023-09-18T06:19:02;9.85;;;4.18;;
20729;SDS011;10526;50.850;12.928;2023-09-18T06:23:24;6.18;;;3.20;;
20729;SDS011;10526;50.850;12.928;2023-09-18T06:27:46;8.65;;;3.17;;
20729;SDS011;10526;50.850;12.928;2023-09-18T06:32:08;6.60;;;3.30;;
20729;SDS011;10526;50.850;12.928;2023-09-18T06:36:31;7.97;;;2.78;;
20729;SDS011;10526;50.850;12.928;2023-09-18T06:40:53;6.40;;;2.65;;
20729;SDS011;10526;50.850;12.928;2023-09-18T06:45:16;6.65;;;2.85;;
20729;SDS011;10526;50.850;12.928;2023-09-18T06:49:38;5.05;;;2.47;;
20729;SDS011;10526;50.850;12.928;2023-09-18T06:54:03;7.50;;;3.20;;
20729;SDS011;10526;50.850;12.928;2023-09-18T06:58:26;10.30;;;2.90;;
20729;SDS011;10526;50.850;12.928;2023-09-18T07:02:48;4.30;;;2.80;;
20729;SDS011;10526;50.850;12.928;2023-09-18T07:07:14;5.68;;;2.70;;
20729;SDS011;10526;50.850;12.928;2023-09-18T07:11:37;6.47;;;2.75;;
20729;SDS011;10526;50.850;12.928;2023-09-18T07:15:59;5.72;;;2.80;;
20729;SDS011;10526;50.850;12.928;2023-09-18T07:20:21;6.53;;;2.40;;
20729;SDS011;10526;50.850;12.928;2023-09-18T07:24:45;8.90;;;2.60;;
20729;SDS011;10526;50.850;12.928;2023-09-18T07:29:07;5.50;;;3.00;;
20729;SDS011;10526;50.850;12.928;2023-09-18T07:33:30;4.95;;;2.60;;
20729;SDS011;10526;50.850;12.928;2023-09-18T07:37:52;7.68;;;2.70;;
20729;SDS011;10526;50.850;12.928;2023-09-18T07:42:15;4.57;;;2.60;;
20729;SDS011;10526;50.850;12.928;2023-09-18T07:46:37;4.72;;;2.63;;
20729;SDS011;10526;50.850;12.928;2023-09-18T07:50:59;4.47;;;2.47;;
20729;SDS011;10526;50.850;12.928;2023-09-18T07:55:21;8.90;;;2.72;;
20729;SDS011;10526;50.850;12.928;2023-09-18T07:59:43;5.70;;;3.10;;
20729;SDS011;10526;50.850;12.928;2023-09-18T08:04:08;5.70;;;3.17;;
20729;SDS011;10526;50.850;12.928;2023-09-18T08:08:30;7.57;;;3.95;;
20729;SDS011;10526;50.850;12.928;2023-09-18T08:12:54;7.30;;;2.80;;
20729;SDS011;10526;50.850;12.928;2023-09-18T08:17:16;7.15;;;2.72;;
20729;SDS011;10526;50.850;12.928;2023-09-18T08:21:39;5.05;;;2.50;;
20729;SDS011;10526;50.850;12.928;2023-09-18T08:26:01;6.95;;;2.45;;
20729;SDS011;10526;50.850;12.928;2023-09-18T08:30:29;12.20;;;3.08;;
20729;SDS011;10526;50.850;12.928;2023-09-18T08:34:51;9.57;;;2.42;;
20729;SDS011;10526;50.850;12.928;2023-09-18T08:39:16;5.50;;;2.15;;
20729;SDS011;10526;50.850;12.928;2023-09-18T08:43:38;4.75;;;2.70;;
20729;SDS011;10526;50.850;12.928;2023-09-18T08:48:04;9.05;;;3.17;;
20729;SDS011;10526;50.850;12.928;2023-09-18T08:52:28;5.05;;;2.53;;
20729;SDS011;10526;50.850;12.928;2023-09-18T08:56:50;6.53;;;2.95;;
20729;SDS011;10526;50.850;12.928;2023-09-18T09:01:14;5.00;;;2.50;;
20729;SDS011;10526;50.850;12.928;2023-09-18T09:05:36;5.28;;;2.17;;
20729;SDS011;10526;50.850;12.928;2023-09-18T09:09:58;7.03;;;2.60;;
20729;SDS011;10526;50.850;12.928;2023-09-18T09:14:20;5.22;;;2.28;;
20729;SDS011;10526;50.850;12.928;2023-09-18T09:18:49;5.47;;;2.25;;
20729;SDS011;10526;50.850;12.928;2023-09-18T09:23:13;10.52;;;2.55;;
20729;SDS011;10526;50.850;12.928;2023-09-18T09:27:41;7.07;;;2.75;;
20729;SDS011;10526;50.850;12.928;2023-09-18T09:32:14;8.35;;;2.22;;
20729;SDS011;10526;50.850;12.928;2023-09-18T09:36:51;4.05;;;2.20;;
20729;SDS011;10526;50.850;12.928;2023-09-18T09:41:15;5.13;;;1.77;;
20729;SDS011;10526;50.850;12.928;2023-09-18T09:45:38;3.10;;;1.70;;
20729;SDS011;10526;50.850;12.928;2023-09-18T09:50:10;4.15;;;2.08;;
20729;SDS011;10526;50.850;12.928;2023-09-18T09:54:36;4.40;;;1.95;;
20729;SDS011;10526;50.850;12.928;2023-09-18T09:59:02;5.68;;;2.35;;
20729;SDS011;10526;50.850;12.928;2023-09-18T10:03:29;4.53;;;2.20;;
20729;SDS011;10526;50.850;12.928;2023-09-18T10:07:55;6.28;;;2.47;;
20729;SDS011;10526;50.850;12.928;2023-09-18T10:12:20;4.68;;;2.13;;
20729;SDS011;10526;50.850;12.928;2023-09-18T10:16:45;7.82;;;2.30;;
20729;SDS011;10526;50.850;12.928;2023-09-18T10:21:18;3.70;;;2.03;;
20729;SDS011;10526;50.850;12.928;2023-09-18T10:25:53;7.00;;;2.28;;
20729;SDS011;10526;50.850;12.928;2023-09-18T10:30:20;5.30;;;2.42;;
20729;SDS011;10526;50.850;12.928;2023-09-18T10:34:44;5.70;;;2.25;;
20729;SDS011;10526;50.850;12.928;2023-09-18T10:39:09;5.53;;;2.20;;
20729;SDS011;10526;50.850;12.928;2023-09-18T10:43:33;3.83;;;2.53;;
20729;SDS011;10526;50.850;12.928;2023-09-18T10:47:55;6.95;;;2.30;;
20729;SDS011;10526;50.850;12.928;2023-09-18T10:52:18;5.05;;;2.08;;
20729;SDS011;10526;50.850;12.928;2023-09-18T10:56:43;6.50;;;2.58;;
20729;SDS011;10526;50.850;12.928;2023-09-18T11:01:06;4.43;;;1.90;;
20729;SDS011;10526;50.850;12.928;2023-09-18T11:05:29;6.70;;;2.28;;
20729;SDS011;10526;50.850;12.928;2023-09-18T11:09:51;11.50;;;2.47;;
20729;SDS011;10526;50.850;12.928;2023-09-18T11:14:14;12.10;;;2.72;;
20729;SDS011;10526;50.850;12.928;2023-09-18T11:18:36;11.95;;;3.10;;
20729;SDS011;10526;50.850;12.928;2023-09-18T11:23:09;13.75;;;3.30;;
20729;SDS011;10526;50.850;12.928;2023-09-18T11:27:53;11.40;;;2.95;;
20729;SDS011;10526;50.850;12.928;2023-09-18T11:32:37;12.13;;;2.72;;
20729;SDS011;10526;50.850;12.928;2023-09-18T11:37:01;11.52;;;2.67;;
20729;SDS011;10526;50.850;12.928;2023-09-18T11:41:40;11.75;;;2.63;;
20729;SDS011;10526;50.850;12.928;2023-09-18T11:46:03;13.82;;;3.15;;
20729;SDS011;10526;50.850;12.928;2023-09-18T11:50:27;9.07;;;2.70;;
20729;SDS011;10526;50.850;12.928;2023-09-18T11:54:52;11.63;;;2.47;;
20729;SDS011;10526;50.850;12.928;2023-09-18T11:59:17;13.80;;;2.42;;
20729;SDS011;10526;50.850;12.928;2023-09-18T12:03:41;12.07;;;2.97;;
20729;SDS011;10526;50.850;12.928;2023-09-18T12:08:03;14.77;;;2.78;;
20729;SDS011;10526;50.850;12.928;2023-09-18T12:12:26;6.75;;;2.42;;
20729;SDS011;10526;50.850;12.928;2023-09-18T12:16:50;15.68;;;3.08;;
20729;SDS011;10526;50.850;12.928;2023-09-18T12:21:12;9.70;;;2.72;;
20729;SDS011;10526;50.850;12.928;2023-09-18T12:25:36;11.55;;;2.83;;
20729;SDS011;10526;50.850;12.928;2023-09-18T12:30:01;14.75;;;2.75;;
20729;SDS011;10526;50.850;12.928;2023-09-18T12:34:26;13.27;;;3.55;;
20729;SDS011;10526;50.850;12.928;2023-09-18T12:38:57;13.45;;;3.13;;
20729;SDS011;10526;50.850;12.928;2023-09-18T12:43:22;12.93;;;2.78;;
20729;SDS011;10526;50.850;12.928;2023-09-18T12:47:46;10.10;;;2.78;;
20729;SDS011;10526;50.850;12.928;2023-09-18T12:52:09;15.85;;;3.30;;
20729;SDS011;10526;50.850;12.928;2023-09-18T12:56:32;13.70;;;3.20;;
20729;SDS011;10526;50.850;12.928;2023-09-18T13:00:54;14.18;;;3.05;;
20729;SDS011;10526;50.850;12.928;2023-09-18T13:05:19;8.98;;;2.63;;
20729;SDS011;10526;50.850;12.928;2023-09-18T13:10:05;11.70;;;3.00;;
20729;SDS011;10526;50.850;12.928;2023-09-18T13:14:56;17.45;;;3.75;;
20729;SDS011;10526;50.850;12.928;2023-09-18T13:19:30;9.38;;;2.90;;
20729;SDS011;10526;50.850;12.928;2023-09-18T13:23:52;13.82;;;3.28;;
20729;SDS011;10526;50.850;12.928;2023-09-18T13:28:15;8.60;;;3.03;;
20729;SDS011;10526;50.850;12.928;2023-09-18T13:32:39;10.77;;;2.88;;
20729;SDS011;10526;50.850;12.928;2023-09-18T13:37:01;9.25;;;2.33;;
20729;SDS011;10526;50.850;12.928;2023-09-18T13:41:23;11.00;;;2.47;;
20729;SDS011;10526;50.850;12.928;2023-09-18T13:45:46;9.35;;;2.20;;
20729;SDS011;10526;50.850;12.928;2023-09-18T13:50:08;11.85;;;2.58;;
20729;SDS011;10526;50.850;12.928;2023-09-18T13:54:31;8.52;;;2.03;;
20729;SDS011;10526;50.850;12.928;2023-09-18T13:58:54;12.63;;;2.63;;
20729;SDS011;10526;50.850;12.928;2023-09-18T14:03:17;12.23;;;2.53;;
20729;SDS011;10526;50.850;12.928;2023-09-18T14:07:40;16.38;;;2.30;;
20729;SDS011;10526;50.850;12.928;2023-09-18T14:12:02;6.22;;;1.95;;
20729;SDS011;10526;50.850;12.928;2023-09-18T14:16:26;9.70;;;2.20;;
20729;SDS011;10526;50.850;12.928;2023-09-18T14:20:48;6.88;;;2.10;;
20729;SDS011;10526;50.850;12.928;2023-09-18T14:25:11;10.00;;;3.95;;
20729;SDS011;10526;50.850;12.928;2023-09-18T14:29:33;7.10;;;1.67;;
20729;SDS011;10526;50.850;12.928;2023-09-18T14:33:55;4.93;;;2.03;;
20729;SDS011;10526;50.850;12.928;2023-09-18T14:38:20;8.48;;;2.15;;
20729;SDS011;10526;50.850;12.928;2023-09-18T14:42:43;8.95;;;2.42;;
20729;SDS011;10526;50.850;12.928;2023-09-18T14:47:05;9.77;;;2.28;;
20729;SDS011;10526;50.850;12.928;2023-09-18T14:51:27;6.38;;;2.33;;
20729;SDS011;10526;50.850;12.928;2023-09-18T14:55:49;5.90;;;2.28;;
20729;SDS011;10526;50.850;12.928;2023-09-18T15:00:12;6.95;;;1.95;;
20729;SDS011;10526;50.850;12.928;2023-09-18T15:04:35;6.63;;;2.30;;
20729;SDS011;10526;50.850;12.928;2023-09-18T15:08:58;6.75;;;2.10;;
20729;SDS011;10526;50.850;12.928;2023-09-18T15:13:20;6.45;;;2.10;;
20729;SDS011;10526;50.850;12.928;2023-09-18T15:17:42;8.48;;;2.63;;
20729;SDS011;10526;50.850;12.928;2023-09-18T15:22:04;6.80;;;2.40;;
20729;SDS011;10526;50.850;12.928;2023-09-18T15:26:29;7.93;;;2.40;;
20729;SDS011;10526;50.850;12.928;2023-09-18T15:30:51;7.97;;;2.08;;
20729;SDS011;10526;50.850;12.928;2023-09-18T15:35:16;8.38;;;2.67;;
20729;SDS011;10526;50.850;12.928;2023-09-18T15:39:38;14.63;;;2.90;;
20729;SDS011;10526;50.850;12.928;2023-09-18T15:44:00;7.03;;;2.38;;
20729;SDS011;10526;50.850;12.928;2023-09-18T15:48:22;10.93;;;2.72;;
20729;SDS011;10526;50.850;12.928;2023-09-18T15:52:46;9.85;;;2.60;;
20729;SDS011;10526;50.850;12.928;2023-09-18T15:57:09;8.00;;;2.50;;
20729;SDS011;10526;50.850;12.928;2023-09-18T16:01:32;13.65;;;2.83;;
20729;SDS011;10526;50.850;12.928;2023-09-18T16:05:54;7.82;;;2.55;;
20729;SDS011;10526;50.850;12.928;2023-09-18T16:10:17;8.02;;;2.72;;
20729;SDS011;10526;50.850;12.928;2023-09-18T16:14:39;8.40;;;2.72;;
20729;SDS011;10526;50.850;12.928;2023-09-18T16:19:01;9.45;;;2.78;;
20729;SDS011;10526;50.850;12.928;2023-09-18T16:23:23;9.52;;;2.70;;
20729;SDS011;10526;50.850;12.928;2023-09-18T16:27:46;7.72;;;2.47;;
20729;SDS011;10526;50.850;12.928;2023-09-18T16:32:08;10.35;;;2.95;;
20729;SDS011;10526;50.850;12.928;2023-09-18T16:36:31;10.38;;;2.40;;
20729;SDS011;10526;50.850;12.928;2023-09-18T16:40:54;7.45;;;2.22;;
20729;SDS011;10526;50.850;12.928;2023-09-18T16:45:16;9.15;;;3.17;;
20729;SDS011;10526;50.850;12.928;2023-09-18T16:49:38;9.48;;;2.92;;
20729;SDS011;10526;50.850;12.928;2023-09-18T16:54:00;7.55;;;2.63;;
20729;SDS011;10526;50.850;12.928;2023-09-18T16:58:22;17.40;;;3.15;;
20729;SDS011;10526;50.850;12.928;2023-09-18T17:02:45;7.57;;;2.42;;
20729;SDS011;10526;50.850;12.928;2023-09-18T17:07:07;8.45;;;2.75;;
20729;SDS011;10526;50.850;12.928;2023-09-18T17:11:30;6.55;;;2.20;;
20729;SDS011;10526;50.850;12.928;2023-09-18T17:15:52;7.93;;;2.22;;
20729;SDS011;10526;50.850;12.928;2023-09-18T17:20:15;6.22;;;1.92;;
20729;SDS011;10526;50.850;12.928;2023-09-18T17:24:37;7.95;;;2.20;;
20729;SDS011;10526;50.850;12.928;2023-09-18T17:29:01;10.98;;;2.97;;
20729;SDS011;10526;50.850;12.928;2023-09-18T17:33:24;9.82;;;2.13;;
20729;SDS011;10526;50.850;12.928;2023-09-18T17:37:46;5.18;;;1.95;;
20729;SDS011;10526;50.850;12.928;2023-09-18T17:42:09;7.75;;;2.20;;
20729;SDS011;10526;50.850;12.928;2023-09-18T17:46:32;7.60;;;2.17;;
20729;SDS011;10526;50.850;12.928;2023-09-18T17:50:54;5.65;;;2.33;;
20729;SDS011;10526;50.850;12.928;2023-09-18T17:55:19;10.10;;;2.80;;
20729;SDS011;10526;50.850;12.928;2023-09-18T17:59:41;7.70;;;2.80;;
20729;SDS011;10526;50.850;12.928;2023-09-18T18:04:04;8.82;;;2.70;;
20729;SDS011;10526;50.850;12.928;2023-09-18T18:08:28;10.75;;;3.15;;
20729;SDS011;10526;50.850;12.928;2023-09-18T18:12:55;7.47;;;2.50;;
20729;SDS011;10526;50.850;12.928;2023-09-18T18:17:18;6.88;;;2.80;;
20729;SDS011;10526;50.850;12.928;2023-09-18T18:21:42;9.90;;;2.88;;
20729;SDS011;10526;50.850;12.928;2023-09-18T18:26:08;8.23;;;2.72;;
20729;SDS011;10526;50.850;12.928;2023-09-18T18:30:32;7.40;;;2.30;;
20729;SDS011;10526;50.850;12.928;2023-09-18T18:34:55;10.13;;;2.58;;
20729;SDS011;10526;50.850;12.928;2023-09-18T18:39:18;7.57;;;2.72;;
20729;SDS011;10526;50.850;12.928;2023-09-18T18:43:40;11.57;;;3.25;;
20729;SDS011;10526;50.850;12.928;2023-09-18T18:48:02;8.10;;;2.67;;
20729;SDS011;10526;50.850;12.928;2023-09-18T18:52:26;10.38;;;2.97;;
20729;SDS011;10526;50.850;12.928;2023-09-18T18:56:48;8.07;;;2.92;;
20729;SDS011;10526;50.850;12.928;2023-09-18T19:01:10;8.90;;;2.47;;
20729;SDS011;10526;50.850;12.928;2023-09-18T19:05:35;6.70;;;2.35;;
20729;SDS011;10526;50.850;12.928;2023-09-18T19:10:00;8.35;;;2.63;;
20729;SDS011;10526;50.850;12.928;2023-09-18T19:14:22;10.82;;;3.08;;
20729;SDS011;10526;50.850;12.928;2023-09-18T19:18:44;7.53;;;3.00;;
20729;SDS011;10526;50.850;12.928;2023-09-18T19:23:06;7.45;;;2.78;;
20729;SDS011;10526;50.850;12.928;2023-09-18T19:27:28;5.65;;;2.85;;
20729;SDS011;10526;50.850;12.928;2023-09-18T19:31:51;6.72;;;2.85;;
20729;SDS011;10526;50.850;12.928;2023-09-18T19:36:13;7.78;;;2.60;;
20729;SDS011;10526;50.850;12.928;2023-09-18T19:40:38;11.38;;;3.10;;
20729;SDS011;10526;50.850;12.928;2023-09-18T19:45:04;7.88;;;2.63;;
20729;SDS011;10526;50.850;12.928;2023-09-18T19:49:26;6.13;;;1.98;;
20729;SDS011;10526;50.850;12.928;2023-09-18T19:53:49;6.15;;;1.80;;
20729;SDS011;10526;50.850;12.928;2023-09-18T19:58:15;4.45;;;1.70;;
20729;SDS011;10526;50.850;12.928;2023-09-18T20:02:37;4.30;;;1.92;;
20729;SDS011;10526;50.850;12.928;2023-09-18T20:07:02;4.85;;;1.25;;
20729;SDS011;10526;50.850;12.928;2023-09-18T20:11:27;7.30;;;1.77;;
20729;SDS011;10526;50.850;12.928;2023-09-18T20:15:50;5.75;;;2.13;;
20729;SDS011;10526;50.850;12.928;2023-09-18T20:20:13;3.33;;;1.67;;
20729;SDS011;10526;50.850;12.928;2023-09-18T20:24:36;4.38;;;1.73;;
20729;SDS011;10526;50.850;12.928;2023-09-18T20:28:58;5.22;;;2.10;;
20729;SDS011;10526;50.850;12.928;2023-09-18T20:33:21;5.30;;;1.83;;
20729;SDS011;10526;50.850;12.928;2023-09-18T20:37:43;6.28;;;1.70;;
20729;SDS011;10526;50.850;12.928;2023-09-18T20:42:05;5.70;;;1.95;;
20729;SDS011;10526;50.850;12.928;2023-09-18T20:46:27;5.80;;;1.83;;
20729;SDS011;10526;50.850;12.928;2023-09-18T20:50:50;4.05;;;1.88;;
20729;SDS011;10526;50.850;12.928;2023-09-18T20:55:13;6.60;;;1.90;;
20729;SDS011;10526;50.850;12.928;2023-09-18T20:59:36;4.80;;;1.80;;
20729;SDS011;10526;50.850;12.928;2023-09-18T21:04:06;7.15;;;2.50;;
20729;SDS011;10526;50.850;12.928;2023-09-18T21:08:29;7.25;;;2.90;;
20729;SDS011;10526;50.850;12.928;2023-09-18T21:12:53;7.20;;;2.22;;
20729;SDS011;10526;50.850;12.928;2023-09-18T21:17:15;9.50;;;2.58;;
20729;SDS011;10526;50.850;12.928;2023-09-18T21:21:38;6.45;;;2.78;;
20729;SDS011;10526;50.850;12.928;2023-09-18T21:26:00;7.60;;;3.20;;
20729;SDS011;10526;50.850;12.928;2023-09-18T21:30:22;11.10;;;3.08;;
20729;SDS011;10526;50.850;12.928;2023-09-18T21:34:44;7.45;;;2.58;;
20729;SDS011;10526;50.850;12.928;2023-09-18T21:39:06;7.40;;;2.35;;
20729;SDS011;10526;50.850;12.928;2023-09-18T21:43:29;6.75;;;2.20;;
20729;SDS011;10526;50.850;12.928;2023-09-18T21:47:51;7.60;;;2.25;;
20729;SDS011;10526;50.850;12.928;2023-09-18T21:52:14;5.75;;;1.73;;
20729;SDS011;10526;50.850;12.928;2023-09-18T21:56:36;6.00;;;2.20;;
20729;SDS011;10526;50.850;12.928;2023-09-18T22:01:00;4.85;;;2.13;;
20729;SDS011;10526;50.850;12.928;2023-09-18T22:05:27;5.10;;;2.30;;
20729;SDS011;10526;50.850;12.928;2023-09-18T22:09:49;7.45;;;2.85;;
20729;SDS011;10526;50.850;12.928;2023-09-18T22:14:13;6.80;;;2.50;;
20729;SDS011;10526;50.850;12.928;2023-09-18T22:18:36;8.52;;;1.77;;
20729;SDS011;10526;50.850;12.928;2023-09-18T22:22:58;5.82;;;2.38;;
20729;SDS011;10526;50.850;12.928;2023-09-18T22:27:25;4.82;;;2.05;;
20729;SDS011;10526;50.850;12.928;2023-09-18T22:31:47;6.28;;;2.03;;
20729;SDS011;10526;50.850;12.928;2023-09-18T22:36:10;7.28;;;1.80;;
20729;SDS011;10526;50.850;12.928;2023-09-18T22:55:49;6.45;;;2.40;;
20729;SDS011;10526;50.850;12.928;2023-09-18T23:00:19;10.05;;;2.55;;
20729;SDS011;10526;50.850;12.928;2023-09-18T23:04:48;3.80;;;1.83;;
20729;SDS011;10526;50.850;12.928;2023-09-18T23:09:10;6.30;;;1.75;;
20729;SDS011;10526;50.850;12.928;2023-09-18T23:13:37;5.22;;;2.60;;
20729;SDS011;10526;50.850;12.928;2023-09-18T23:18:00;5.85;;;1.92;;
20729;SDS011;10526;50.850;12.928;2023-09-18T23:22:27;5.50;;;2.40;;
20729;SDS011;10526;50.850;12.928;2023-09-18T23:26:50;7.68;;;2.30;;
20729;SDS011;10526;50.850;12.928;2023-09-18T23:31:12;3.47;;;2.00;;
20729;SDS011;10526;50.850;12.928;2023-09-18T23:35:37;8.77;;;2.80;;
20729;SDS011;10526;50.850;12.928;2023-09-18T23:39:59;6.90;;;2.40;;
20729;SDS011;10526;50.850;12.928;2023-09-18T23:44:21;6.05;;;2.63;;
20729;SDS011;10526;50.850;12.928;2023-09-18T23:48:44;6.82;;;2.35;;
20729;SDS011;10526;50.850;12.928;2023-09-18T23:53:06;5.40;;;2.40;;
20729;SDS011;10526;50.850;12.928;2023-09-18T23:57:38;4.75;;;2.00;;
